Terminal Aerodrome Forecast
Issued by NWS

Home | Current Version | Previous Version | Text Only | Print | Product List | Glossary On
Versions: 1 2 3 4 5 6 7 8 9 10 11 12 13 14
000
FTUS44 KLUB 071131
TAFCDS
TAF
KCDS 071131Z 0712/0812 11005KT P6SM BKN250
     FM071400 13006KT P6SM OVC025
     FM072200 03017KT P6SM OVC015=

USA.gov is the U.S. government's official web portal to all federal, state and local government web resources and services.